Time;durP1;ratioP1;P1;durP2;ratioP2;P2;SDS_P1;SDS_P2;PMS_P1;PMS_P2;Temp;Humidity;BMP_temperature;BMP_pressure;BME280_temperature;BME280_humidity;BME280_pressure;Samples;Min_cycle;Max_cycle;Signal;HPM_P1;HPM_P2
2021/10/21 00:02:23;;;;;;;11.27;3.13;;;;;;;11.92;99.67;98816.94;5129687;27;20042;-78
2021/10/21 00:04:49;;;;;;;15.02;3.45;;;;;;;11.89;99.72;98809.34;5129495;27;20042;-78
2021/10/21 00:07:14;;;;;;;11.90;2.63;;;;;;;11.86;99.70;98795.56;5112887;27;20030;-77
2021/10/21 00:09:40;;;;;;;14.02;4.18;;;;;;;11.84;99.83;98787.75;5130063;27;20043;-78
2021/10/21 00:12:06;;;;;;;19.33;3.03;;;;;;;11.79;99.80;98772.38;5129903;27;20094;-78
2021/10/21 00:14:32;;;;;;;12.32;3.90;;;;;;;11.79;99.83;98776.91;5130499;27;20305;-79
2021/10/21 00:16:58;;;;;;;17.88;4.15;;;;;;;11.74;100.00;98774.91;5112682;27;20031;-79
2021/10/21 00:19:24;;;;;;;7.40;3.20;;;;;;;11.78;99.80;98769.94;5129995;27;20035;-78
2021/10/21 00:21:49;;;;;;;12.40;2.90;;;;;;;11.73;99.92;98769.75;5130748;27;20089;-78
2021/10/21 00:24:17;;;;;;;11.85;3.65;;;;;;;11.70;100.00;98756.84;5129245;27;20146;-78
2021/10/21 00:26:42;;;;;;;10.73;3.53;;;;;;;11.60;100.00;98752.78;5129632;27;20467;-78
2021/10/21 00:29:08;;;;;;;16.77;3.67;;;;;;;11.59;100.00;98750.34;5130358;27;20031;-78
2021/10/21 00:31:33;;;;;;;23.13;5.53;;;;;;;11.50;100.00;98732.97;5130398;27;20034;-78
2021/10/21 00:33:59;;;;;;;11.38;2.50;;;;;;;11.48;100.00;98738.50;5129246;27;20338;-78
2021/10/21 00:36:24;;;;;;;8.87;3.17;;;;;;;11.48;100.00;98751.06;5112834;27;20070;-77
2021/10/21 00:38:50;;;;;;;17.48;4.25;;;;;;;11.41;100.00;98735.88;5129710;27;20060;-79
2021/10/21 00:41:15;;;;;;;17.00;3.90;;;;;;;11.35;100.00;98734.06;5130098;27;20354;-78
2021/10/21 00:43:42;;;;;;;11.75;3.08;;;;;;;11.33;100.00;98719.28;5127833;27;20046;-79
2021/10/21 00:46:10;;;;;;;10.45;2.95;;;;;;;11.29;100.00;98732.28;5127438;27;20063;-77
2021/10/21 00:48:37;;;;;;;9.88;3.05;;;;;;;11.25;100.00;98733.72;5129700;27;20484;-79
2021/10/21 00:51:06;;;;;;;19.00;3.83;;;;;;;11.28;100.00;98729.81;5116173;27;20032;-79
2021/10/21 00:53:33;;;;;;;12.02;3.80;;;;;;;11.16;100.00;98724.34;5129009;27;20023;-79
2021/10/21 00:56:00;;;;;;;12.18;3.65;;;;;;;11.10;100.00;98727.91;5129921;27;20122;-78
2021/10/21 00:58:26;;;;;;;10.85;3.00;;;;;;;11.20;100.00;98733.56;5128578;27;20062;-79
2021/10/21 01:00:53;;;;;;;17.80;3.63;;;;;;;11.05;100.00;98719.69;5129593;27;20073;-78
2021/10/21 01:03:18;;;;;;;11.55;3.95;;;;;;;11.19;100.00;98734.59;5111520;27;20049;-78
2021/10/21 01:05:44;;;;;;;9.63;3.23;;;;;;;11.16;100.00;98721.66;5129707;27;20034;-77
2021/10/21 01:08:11;;;;;;;10.10;3.25;;;;;;;11.30;100.00;98731.22;5129283;27;20479;-79
2021/10/21 01:10:37;;;;;;;8.18;3.38;;;;;;;11.32;100.00;98729.16;5108658;28;20039;-79
2021/10/21 01:13:02;;;;;;;17.52;4.35;;;;;;;11.27;100.00;98693.47;5123323;27;20018;-78
2021/10/21 01:15:28;;;;;;;10.77;3.33;;;;;;;11.25;100.00;98696.34;5128692;27;20031;-78
2021/10/21 01:17:55;;;;;;;13.07;4.10;;;;;;;11.26;100.00;98695.31;5128898;27;20031;-79
2021/10/21 01:20:22;;;;;;;15.73;3.30;;;;;;;11.24;100.00;98688.53;5129011;27;20284;-77
2021/10/21 01:22:48;;;;;;;17.13;3.97;;;;;;;11.25;100.00;98685.66;5129028;27;20120;-79
2021/10/21 01:25:15;;;;;;;;;;;;;;;11.37;100.00;98673.22;5130055;27;20114;-78
2021/10/21 01:27:42;;;;;;;8.02;3.70;;;;;;;11.35;100.00;98659.25;5128998;27;19915;-77
2021/10/21 01:30:08;;;;;;;10.93;3.78;;;;;;;11.39;100.00;98654.31;5129038;27;20034;-79
2021/10/21 01:32:36;;;;;;;12.32;4.32;;;;;;;11.35;100.00;98637.88;5124154;27;20039;-79
2021/10/21 01:35:03;;;;;;;10.18;3.30;;;;;;;11.27;100.00;98611.47;5129650;27;20353;-79
2021/10/21 01:37:30;;;;;;;10.90;3.05;;;;;;;11.34;100.00;98608.75;5128782;27;20019;-79
2021/10/21 01:39:56;;;;;;;9.80;4.20;;;;;;;11.31;100.00;98603.84;5122240;27;20140;-78
2021/10/21 01:42:22;;;;;;;9.32;3.70;;;;;;;11.38;100.00;98589.38;5128406;27;20490;-79
2021/10/21 01:44:47;;;;;;;9.03;3.90;;;;;;;11.36;100.00;98585.28;5128552;27;20034;-78
2021/10/21 01:47:13;;;;;;;13.30;3.53;;;;;;;11.34;100.00;98569.47;5109598;27;20089;-78
2021/10/21 01:49:38;;;;;;;13.37;4.13;;;;;;;11.32;100.00;98557.38;5129373;27;20063;-78
2021/10/21 01:52:04;;;;;;;25.37;5.20;;;;;;;11.26;100.00;98556.41;5129529;27;20394;-79
2021/10/21 01:54:30;;;;;;;8.27;3.63;;;;;;;11.19;100.00;98539.63;5128651;27;20456;-79
2021/10/21 01:56:55;;;;;;;15.93;3.43;;;;;;;11.18;100.00;98546.00;5128652;27;20034;-79
2021/10/21 01:59:21;;;;;;;10.80;3.65;;;;;;;11.17;100.00;98531.03;5128734;27;20046;-78
2021/10/21 02:01:46;;;;;;;13.18;4.40;;;;;;;11.23;100.00;98534.66;5128762;27;20039;-79
2021/10/21 02:04:11;;;;;;;15.67;3.83;;;;;;;11.17;100.00;98510.47;5111400;28;20037;-79
2021/10/21 02:06:37;;;;;;;16.63;4.37;;;;;;;11.17;100.00;98523.03;5128734;27;20364;-78
2021/10/21 02:09:03;;;;;;;13.70;3.47;;;;;;;11.03;100.00;98506.31;5111674;27;20269;-79
2021/10/21 02:11:28;;;;;;;11.63;3.83;;;;;;;11.06;100.00;98505.03;5111112;28;20043;-79
2021/10/21 02:13:54;;;;;;;19.83;4.03;;;;;;;11.04;100.00;98507.13;5129312;27;20023;-79
2021/10/21 02:16:19;;;;;;;16.70;4.17;;;;;;;10.91;100.00;98487.53;5111452;28;20039;-78
2021/10/21 02:18:45;;;;;;;13.93;4.28;;;;;;;10.99;100.00;98471.19;5129416;27;20106;-82
2021/10/21 02:21:10;;;;;;;17.87;4.73;;;;;;;11.00;100.00;98466.66;5128627;28;20034;-77
2021/10/21 02:23:36;;;;;;;13.32;5.25;;;;;;;10.97;100.00;98465.25;5111301;28;20046;-79
2021/10/21 02:26:02;;;;;;;11.10;4.73;;;;;;;10.98;100.00;98453.56;5128590;28;20039;-79
2021/10/21 02:28:27;;;;;;;12.95;4.50;;;;;;;10.99;100.00;98452.50;5128606;28;20388;-79
2021/10/21 02:30:53;;;;;;;14.30;5.73;;;;;;;11.03;100.00;98442.22;5128524;27;20039;-79
2021/10/21 02:33:19;;;;;;;14.10;4.05;;;;;;;11.07;100.00;98454.06;5127968;27;20062;-78
2021/10/21 02:35:45;;;;;;;9.45;4.10;;;;;;;11.10;100.00;98445.63;5128452;27;20065;-78
2021/10/21 02:38:12;;;;;;;9.15;5.18;;;;;;;11.14;100.00;98432.63;5111111;28;20504;-79
2021/10/21 02:40:38;;;;;;;19.42;5.28;;;;;;;11.15;100.00;98423.59;5129298;27;20039;-78
2021/10/21 02:43:04;;;;;;;15.25;5.25;;;;;;;11.25;100.00;98425.75;5129127;28;20046;-77
2021/10/21 02:45:30;;;;;;;13.55;5.25;;;;;;;11.19;100.00;98388.22;5111111;28;20023;-78
2021/10/21 02:47:56;;;;;;;18.13;5.80;;;;;;;11.22;100.00;98388.81;5129219;27;20084;-79
2021/10/21 02:50:22;;;;;;;16.77;5.43;;;;;;;11.31;100.00;98398.97;5129087;27;20058;-79
2021/10/21 02:52:48;;;;;;;12.02;5.35;;;;;;;11.27;100.00;98384.41;5111212;28;20050;-78
2021/10/21 02:55:14;;;;;;;18.35;9.23;;;;;;;11.22;100.00;98365.59;5127855;28;20476;-78
2021/10/21 02:57:41;;;;;;;14.53;5.03;;;;;;;11.24;100.00;98373.34;5128209;28;20024;-78
2021/10/21 03:00:08;;;;;;;11.20;4.68;;;;;;;11.23;100.00;98367.19;5128151;27;20039;-79
2021/10/21 03:02:34;;;;;;;9.25;5.50;;;;;;;11.29;100.00;98357.50;5128279;28;20034;-78
2021/10/21 03:04:59;;;;;;;;;;;;;;;11.30;100.00;98348.44;5128180;28;20464;-77
2021/10/21 03:07:25;;;;;;;;;;;;;;;11.32;100.00;98351.69;5128308;28;19911;-77
2021/10/21 03:09:50;;;;;;;15.27;6.00;;;;;;;11.37;100.00;98347.28;5111222;28;20299;-79
2021/10/21 03:12:16;;;;;;;16.92;7.32;;;;;;;11.28;100.00;98319.25;5127975;28;20031;-79
2021/10/21 03:14:41;;;;;;;10.67;5.80;;;;;;;11.30;100.00;98325.19;5110921;27;20031;-80
2021/10/21 03:17:07;;;;;;;17.92;8.13;;;;;;;11.34;100.00;98321.03;5127962;28;20038;-78
2021/10/21 03:19:33;;;;;;;17.35;7.60;;;;;;;11.30;100.00;98313.69;5110600;28;20031;-76
2021/10/21 03:21:59;;;;;;;12.27;6.68;;;;;;;11.34;100.00;98305.00;5128615;27;20360;-79
2021/10/21 03:24:25;;;;;;;15.13;7.43;;;;;;;11.35;100.00;98301.28;5132377;27;20035;-79
2021/10/21 03:26:50;;;;;;;24.25;9.80;;;;;;;11.33;100.00;98286.53;5114234;27;20035;-76
2021/10/21 03:29:16;;;;;;;17.07;8.30;;;;;;;11.34;100.00;98272.94;5114135;27;20034;-80
2021/10/21 03:31:41;;;;;;;20.57;9.37;;;;;;;11.34;100.00;98258.78;5113379;27;20121;-78
2021/10/21 03:34:07;;;;;;;22.10;8.87;;;;;;;11.31;100.00;98241.38;5129866;27;20045;-78
2021/10/21 03:36:32;;;;;;;20.10;8.33;;;;;;;11.26;100.00;98217.19;5113264;27;20030;-77
2021/10/21 03:38:57;;;;;;;17.80;7.73;;;;;;;11.26;100.00;98216.38;5131193;27;20100;-78
2021/10/21 03:41:23;;;;;;;18.88;10.20;;;;;;;11.22;100.00;98212.53;5130134;27;20153;-77
2021/10/21 03:43:49;;;;;;;20.80;9.07;;;;;;;11.29;100.00;98216.75;5129641;27;20042;-78
2021/10/21 03:46:14;;;;;;;12.80;8.37;;;;;;;11.32;100.00;98202.91;5131316;27;20023;-78
2021/10/21 03:48:40;;;;;;;22.30;10.07;;;;;;;11.19;100.00;98157.72;5113034;27;20476;-77
2021/10/21 03:51:05;;;;;;;16.10;8.47;;;;;;;11.29;100.00;98147.28;5112773;27;20273;-76
2021/10/21 03:53:31;;;;;;;14.13;8.48;;;;;;;11.30;100.00;98143.56;5112533;27;20027;-78
2021/10/21 03:55:57;;;;;;;18.40;9.57;;;;;;;11.29;100.00;98117.91;5130576;27;20038;-77
2021/10/21 03:58:22;;;;;;;17.77;8.80;;;;;;;11.31;100.00;98112.34;5112573;27;20039;-77
2021/10/21 04:00:47;;;;;;;16.53;9.17;;;;;;;11.28;100.00;98102.91;5129844;27;20145;-76
2021/10/21 04:03:13;;;;;;;18.48;9.23;;;;;;;11.28;100.00;98081.53;5129687;27;20219;-73
2021/10/21 04:05:39;;;;;;;15.48;8.77;;;;;;;11.24;100.00;98080.41;5112280;27;20106;-73
2021/10/21 04:08:05;;;;;;;20.40;9.53;;;;;;;11.20;100.00;98076.56;5129430;27;20034;-73
2021/10/21 04:10:31;;;;;;;20.17;9.98;;;;;;;11.18;100.00;98075.97;5129590;27;20486;-74
2021/10/21 04:12:57;;;;;;;22.67;10.90;;;;;;;11.17;100.00;98067.16;5111616;27;20055;-73
2021/10/21 04:15:25;;;;;;;21.05;11.13;;;;;;;11.13;100.00;98060.66;5129847;27;20329;-73
2021/10/21 04:17:54;;;;;;;21.30;10.05;;;;;;;11.08;100.00;98052.53;5131159;27;20039;-73
2021/10/21 04:20:20;;;;;;;22.50;10.98;;;;;;;11.10;100.00;98060.31;5112939;27;20035;-73
2021/10/21 04:22:46;;;;;;;19.13;10.13;;;;;;;11.11;100.00;98054.72;5131054;27;20038;-73
2021/10/21 04:25:12;;;;;;;25.52;10.93;;;;;;;11.07;100.00;98031.38;5129623;27;20023;-71
2021/10/21 04:27:37;;;;;;;22.17;9.83;;;;;;;11.09;100.00;98042.66;5130966;27;20027;-72
2021/10/21 04:30:05;;;;;;;15.27;8.77;;;;;;;11.11;100.00;98025.34;5130887;27;20407;-73
2021/10/21 04:32:30;;;;;;;14.00;8.45;;;;;;;11.19;100.00;98029.53;5130451;27;20046;-73
2021/10/21 04:34:57;;;;;;;13.27;8.20;;;;;;;11.18;100.00;98009.22;5129516;27;20086;-73
2021/10/21 04:37:22;;;;;;;12.80;8.25;;;;;;;11.11;100.00;97985.31;5129648;27;20043;-74
2021/10/21 04:39:47;;;;;;;11.80;7.57;;;;;;;11.06;100.00;97965.69;5130740;27;20019;-74
2021/10/21 04:42:13;;;;;;;12.00;7.37;;;;;;;11.09;100.00;97957.22;5129753;27;20053;-75
2021/10/21 04:44:42;;;;;;;11.60;6.72;;;;;;;11.03;100.00;97942.94;5130348;27;20039;-75
2021/10/21 04:47:08;;;;;;;9.77;6.20;;;;;;;10.98;100.00;97943.66;5129681;27;20031;-75
2021/10/21 04:49:33;;;;;;;12.93;6.83;;;;;;;11.08;100.00;97952.94;5130255;27;20039;-75
2021/10/21 04:51:58;;;;;;;15.50;8.30;;;;;;;11.09;100.00;97957.22;5128711;27;20309;-73
2021/10/21 04:54:24;;;;;;;15.93;7.63;;;;;;;11.14;100.00;97959.97;5127525;27;20031;-73
2021/10/21 04:56:50;;;;;;;13.38;7.38;;;;;;;11.17;100.00;97936.31;5127714;27;20035;-72
2021/10/21 04:59:15;;;;;;;12.47;7.00;;;;;;;11.25;100.00;97921.78;5128150;27;20038;-72
2021/10/21 05:01:40;;;;;;;10.03;5.93;;;;;;;11.40;100.00;97900.72;5127845;27;20068;-73
2021/10/21 05:04:06;;;;;;;7.00;4.88;;;;;;;11.50;100.00;97852.03;5127343;27;20027;-72
2021/10/21 05:06:31;;;;;;;8.03;4.87;;;;;;;11.55;100.00;97817.38;5128020;27;20578;-73
2021/10/21 05:08:57;;;;;;;4.77;3.40;;;;;;;11.60;100.00;97781.91;5129704;27;20039;-73
2021/10/21 05:11:22;;;;;;;4.87;2.70;;;;;;;11.57;100.00;97739.66;5129829;27;20101;-73
2021/10/21 05:13:48;;;;;;;3.20;2.53;;;;;;;11.56;100.00;97743.38;5111690;27;20284;-72
2021/10/21 05:16:13;;;;;;;4.60;2.33;;;;;;;11.50;100.00;97728.31;5111981;27;20039;-73
2021/10/21 05:18:38;;;;;;;5.20;2.77;;;;;;;11.52;100.00;97747.56;5129873;27;20118;-73
2021/10/21 05:21:04;;;;;;;4.73;2.50;;;;;;;11.35;100.00;97727.00;5129017;27;20039;-73
2021/10/21 05:23:29;;;;;;;2.73;1.97;;;;;;;11.33;100.00;97729.13;5128729;27;20039;-73
2021/10/21 05:25:55;;;;;;;4.03;2.50;;;;;;;11.35;100.00;97729.66;5129865;27;20042;-73
2021/10/21 05:28:20;;;;;;;4.60;2.10;;;;;;;11.36;100.00;97730.50;5129436;27;20264;-73
2021/10/21 05:30:46;;;;;;;2.93;1.80;;;;;;;11.14;100.00;97709.00;5128844;27;20027;-74
2021/10/21 05:33:11;;;;;;;2.43;1.90;;;;;;;11.13;100.00;97734.09;5110497;27;20047;-74
2021/10/21 05:35:37;;;;;;;4.97;1.87;;;;;;;10.83;100.00;97728.97;5127206;27;20276;-73
2021/10/21 05:38:02;;;;;;;6.20;1.85;;;;;;;10.83;100.00;97747.66;5127142;27;20035;-74
2021/10/21 05:40:28;;;;;;;3.57;2.20;;;;;;;10.76;100.00;97737.94;5128672;27;20046;-74
2021/10/21 05:42:53;;;;;;;8.37;2.83;;;;;;;10.81;100.00;97771.91;5128441;27;20365;-75
2021/10/21 05:45:19;;;;;;;4.77;1.73;;;;;;;10.81;100.00;97777.25;5128627;27;20022;-74
2021/10/21 05:47:46;;;;;;;3.92;1.77;;;;;;;10.85;100.00;97777.59;5128528;27;20034;-74
2021/10/21 05:50:14;;;;;;;4.30;1.80;;;;;;;10.81;100.00;97753.22;5128329;27;20030;-74
2021/10/21 05:52:40;;;;;;;2.95;1.35;;;;;;;10.74;100.00;97749.88;5111295;27;20027;-75
2021/10/21 05:55:06;;;;;;;5.07;1.63;;;;;;;10.77;100.00;97744.91;5127112;27;20471;-73
2021/10/21 05:57:32;;;;;;;2.47;1.52;;;;;;;10.63;100.00;97721.38;5126988;27;20368;-73
2021/10/21 05:59:58;;;;;;;3.80;1.98;;;;;;;10.53;100.00;97743.31;5127364;27;20034;-73
2021/10/21 06:02:23;;;;;;;3.28;1.10;;;;;;;10.54;100.00;97723.63;5128628;27;20031;-74
2021/10/21 06:04:49;;;;;;;4.00;1.20;;;;;;;10.45;100.00;97733.84;5127072;27;20449;-73
2021/10/21 06:07:14;;;;;;;1.70;1.00;;;;;;;10.39;100.00;97742.78;5127184;27;20043;-74
2021/10/21 06:09:41;;;;;;;2.88;1.38;;;;;;;10.32;100.00;97747.41;5127429;28;20065;-73
2021/10/21 06:12:07;;;;;;;2.78;1.10;;;;;;;10.26;100.00;97761.69;5128488;27;20102;-74
2021/10/21 06:14:33;;;;;;;5.00;1.30;;;;;;;10.17;100.00;97758.53;5126969;27;20684;-74
2021/10/21 06:16:59;;;;;;;1.95;1.00;;;;;;;10.26;100.00;97788.34;5110429;28;20110;-74
2021/10/21 06:19:24;;;;;;;3.50;1.20;;;;;;;10.15;100.00;97764.09;5127270;28;20377;-74
2021/10/21 06:21:57;;;;;;;3.58;1.10;;;;;;;10.08;100.00;97765.25;5128250;27;20046;-74
2021/10/21 06:24:24;;;;;;;2.00;1.10;;;;;;;10.13;100.00;97779.50;5127125;27;20653;-74
2021/10/21 06:26:49;;;;;;;1.73;0.95;;;;;;;10.11;100.00;97778.97;5128202;27;20498;-74
2021/10/21 06:29:15;;;;;;;11.82;1.70;;;;;;;10.05;100.00;97768.41;5128164;27;20027;-73
2021/10/21 06:31:41;;;;;;;1.43;0.60;;;;;;;10.18;100.00;97786.00;5128088;27;20242;-74
2021/10/21 06:34:06;;;;;;;6.18;1.23;;;;;;;10.04;100.00;97769.44;5126916;28;20058;-74
2021/10/21 06:36:33;;;;;;;4.23;0.87;;;;;;;10.01;100.00;97770.72;5127097;28;20027;-74
2021/10/21 06:38:59;;;;;;;6.45;0.90;;;;;;;10.09;100.00;97788.19;5127028;28;20050;-74
2021/10/21 06:41:25;;;;;;;1.87;0.60;;;;;;;10.16;100.00;97770.25;5127328;28;20023;-75
2021/10/21 06:43:50;;;;;;;3.13;1.13;;;;;;;10.27;100.00;97789.94;5127798;27;20039;-76
2021/10/21 06:46:15;;;;;;;1.73;0.80;;;;;;;10.26;99.78;97791.81;5128289;28;20019;-76
2021/10/21 06:48:41;;;;;;;5.73;1.10;;;;;;;10.27;99.75;97787.28;5127311;28;20031;-77
2021/10/21 06:51:06;;;;;;;3.15;0.90;;;;;;;10.20;99.87;97779.41;5127189;27;20046;-77
2021/10/21 06:53:32;;;;;;;6.03;1.10;;;;;;;10.28;99.54;97780.94;5127025;28;20062;-77
2021/10/21 06:55:57;;;;;;;0.80;0.50;;;;;;;10.19;99.21;97779.66;5127669;27;20042;-76
2021/10/21 06:58:23;;;;;;;4.57;0.88;;;;;;;10.23;98.53;97765.63;5131199;27;20543;-76
2021/10/21 07:00:48;;;;;;;4.10;0.87;;;;;;;10.28;98.83;97778.25;5132342;27;20389;-78
2021/10/21 07:03:14;;;;;;;2.85;0.90;;;;;;;10.24;99.19;97779.75;5130743;27;20035;-78
2021/10/21 07:05:42;;;;;;;5.00;0.93;;;;;;;10.24;99.62;97777.91;5130945;27;20035;-77
2021/10/21 07:08:12;;;;;;;7.10;1.70;;;;;;;10.26;99.39;97775.00;5130934;27;20112;-78
2021/10/21 07:10:39;;;;;;;6.57;1.52;;;;;;;10.21;99.42;97772.19;5131058;27;20085;-78
2021/10/21 07:13:05;;;;;;;1.58;0.68;;;;;;;10.20;99.50;97770.59;5131048;27;20682;-78
2021/10/21 07:15:32;;;;;;;6.40;0.98;;;;;;;10.21;98.87;97774.88;5113835;27;20051;-79
2021/10/21 07:17:57;;;;;;;3.88;0.85;;;;;;;10.15;98.20;97772.09;5130854;27;20078;-79
2021/10/21 07:20:23;;;;;;;3.70;0.80;;;;;;;10.01;99.17;97780.56;5130759;27;20105;-77
2021/10/21 07:22:48;;;;;;;3.10;0.90;;;;;;;10.02;99.69;97774.19;5131718;27;20079;-79
2021/10/21 07:25:14;;;;;;;1.57;0.87;;;;;;;9.95;100.00;97779.66;5131395;27;20034;-77
2021/10/21 07:27:41;;;;;;;2.43;0.77;;;;;;;9.91;100.00;97789.94;5131621;27;20031;-76
2021/10/21 07:30:07;;;;;;;3.22;1.10;;;;;;;9.82;100.00;97793.97;5130566;27;20058;-76
2021/10/21 07:32:33;;;;;;;4.13;1.10;;;;;;;9.81;100.00;97800.38;5113255;27;20105;-76
2021/10/21 07:34:59;;;;;;;4.05;0.93;;;;;;;9.76;100.00;97796.75;5130126;27;20356;-75
2021/10/21 07:37:24;;;;;;;4.25;1.20;;;;;;;9.76;100.00;97802.88;5131019;27;20031;-73
2021/10/21 07:39:49;;;;;;;7.80;1.77;;;;;;;9.68;100.00;97819.22;5131129;27;20439;-73
2021/10/21 07:42:15;;;;;;;6.07;1.30;;;;;;;9.51;100.00;97806.53;5113192;27;20027;-71
2021/10/21 07:44:44;;;;;;;4.85;1.38;;;;;;;9.56;100.00;97829.03;5130650;27;20049;-72
2021/10/21 07:47:10;;;;;;;2.78;0.77;;;;;;;9.55;100.00;97830.84;5129891;27;20027;-72
2021/10/21 07:49:36;;;;;;;2.53;1.27;;;;;;;9.44;100.00;97834.31;5112945;27;20045;-72
2021/10/21 07:52:03;;;;;;;6.40;1.80;;;;;;;9.34;100.00;97836.69;5130793;27;20027;-73
2021/10/21 07:54:29;;;;;;;2.78;1.13;;;;;;;9.37;100.00;97841.59;5129302;27;20142;-72
2021/10/21 07:56:59;;;;;;;1.67;0.93;;;;;;;9.45;100.00;97854.56;5130832;27;20046;-73
2021/10/21 07:59:26;;;;;;;3.08;0.95;;;;;;;9.49;100.00;97853.09;5129135;27;20042;-72
2021/10/21 08:01:54;;;;;;;1.10;0.73;;;;;;;9.57;100.00;97846.63;5130723;27;20123;-73
2021/10/21 08:04:19;;;;;;;1.48;0.80;;;;;;;9.65;100.00;97840.97;5129220;27;20106;-74
2021/10/21 08:06:45;;;;;;;3.53;1.20;;;;;;;9.65;100.00;97848.97;5129435;27;20531;-74
2021/10/21 08:09:10;;;;;;;1.40;0.80;;;;;;;9.67;100.00;97844.25;5128967;27;20363;-74
2021/10/21 08:11:36;;;;;;;3.50;0.95;;;;;;;9.76;100.00;97844.69;5112393;27;20058;-74
2021/10/21 08:14:01;;;;;;;3.80;1.10;;;;;;;9.63;100.00;97846.53;5129077;27;20095;-74
2021/10/21 08:16:27;;;;;;;2.43;0.93;;;;;;;9.58;100.00;97869.56;5129291;27;20042;-74
2021/10/21 08:18:53;;;;;;;1.67;1.33;;;;;;;9.57;100.00;97862.59;5130003;27;20050;-74
2021/10/21 08:21:18;;;;;;;4.40;1.08;;;;;;;9.59;100.00;97868.50;5113124;27;20050;-75
2021/10/21 08:23:44;;;;;;;9.48;3.08;;;;;;;9.41;100.00;97874.69;5130859;27;20039;-74
2021/10/21 08:26:09;;;;;;;3.90;1.40;;;;;;;9.46;100.00;97890.81;5131055;27;20027;-73
2021/10/21 08:28:35;;;;;;;5.00;1.58;;;;;;;9.51;100.00;97933.56;5130036;27;20463;-72
2021/10/21 08:31:01;;;;;;;5.70;1.80;;;;;;;9.48;100.00;97961.47;5131006;27;20031;-73
2021/10/21 08:33:26;;;;;;;3.15;1.00;;;;;;;9.33;100.00;97973.53;5129455;27;20027;-73
2021/10/21 08:35:52;;;;;;;3.10;0.83;;;;;;;9.20;100.00;97979.78;5129799;27;20099;-73
2021/10/21 08:38:18;;;;;;;7.33;0.70;;;;;;;9.06;100.00;97979.94;5129833;27;20031;-73
2021/10/21 08:40:44;;;;;;;2.10;0.47;;;;;;;8.88;100.00;97970.09;5129981;27;20042;-73
2021/10/21 08:43:11;;;;;;;;;;;;;;;8.81;100.00;97985.28;5130232;27;20538;-73
2021/10/21 08:45:37;;;;;;;1.85;0.40;;;;;;;8.70;100.00;97980.69;5129518;27;20014;-74
2021/10/21 08:48:04;;;;;;;4.70;0.57;;;;;;;8.72;100.00;97980.47;5129469;27;20144;-74
2021/10/21 08:50:33;;;;;;;1.00;0.68;;;;;;;8.61;100.00;98000.59;5130500;27;20361;-73
2021/10/21 08:52:58;;;;;;;2.75;0.68;;;;;;;8.70;100.00;98015.25;5129389;27;20440;-73
2021/10/21 08:55:24;;;;;;;2.35;0.70;;;;;;;8.62;100.00;98020.88;5111770;27;20042;-73
2021/10/21 08:57:49;;;;;;;2.83;0.90;;;;;;;8.70;100.00;98041.84;5128770;27;20060;-74
2021/10/21 09:00:15;;;;;;;4.67;0.70;;;;;;;8.70;100.00;98043.72;5129970;27;20027;-74
2021/10/21 09:02:54;;;;;;;6.00;1.13;;;;;;;8.75;100.00;98071.28;5129177;27;20043;-73
2021/10/21 09:08:07;;;;;;;4.15;0.82;;;;;;;8.67;100.00;98087.50;5129688;27;20039;-74
2021/10/21 09:10:42;;;;;;;6.85;0.90;;;;;;;8.74;100.00;98098.13;5129645;27;20031;-74
2021/10/21 09:13:28;;;;;;;2.78;1.00;;;;;;;8.83;100.00;98118.91;5128816;27;20035;-73
2021/10/21 09:15:56;;;;;;;2.38;0.63;;;;;;;8.84;100.00;98120.53;5128808;27;20039;-74
2021/10/21 09:18:26;;;;;;;2.97;0.93;;;;;;;8.77;100.00;98129.59;5128407;27;20019;-73
2021/10/21 09:20:53;;;;;;;1.63;0.47;;;;;;;8.87;100.00;98152.06;5127448;27;20027;-74
2021/10/21 09:23:25;;;;;;;4.65;0.90;;;;;;;9.05;100.00;98172.59;5111241;27;20095;-73
2021/10/21 09:25:51;;;;;;;4.43;0.75;;;;;;;9.14;100.00;98189.13;5128576;27;20049;-73
2021/10/21 09:28:26;;;;;;;1.90;0.80;;;;;;;9.08;100.00;98197.94;5129429;27;20034;-74
2021/10/21 09:31:05;;;;;;;3.88;0.70;;;;;;;9.21;100.00;98208.53;5129508;27;20117;-73
2021/10/21 09:33:49;;;;;;;2.35;0.77;;;;;;;9.30;100.00;98214.41;5127966;27;20054;-73
2021/10/21 09:36:20;;;;;;;3.65;0.70;;;;;;;9.29;100.00;98229.56;5111341;27;20035;-74
2021/10/21 09:38:54;;;;;;;3.55;1.10;;;;;;;9.24;100.00;98237.38;5128679;27;20344;-73
2021/10/21 09:41:25;;;;;;;6.68;1.90;;;;;;;9.26;100.00;98243.28;5128080;27;20031;-74
2021/10/21 09:43:54;;;;;;;2.03;0.73;;;;;;;9.33;100.00;98247.78;5126898;27;20031;-74
2021/10/21 09:46:42;;;;;;;4.60;1.30;;;;;;;9.50;100.00;98267.50;5109948;27;20027;-74
2021/10/21 09:49:21;;;;;;;4.70;0.85;;;;;;;9.41;100.00;98274.97;5128109;27;20046;-74
2021/10/21 09:51:47;;;;;;;6.28;1.38;;;;;;;9.32;100.00;98286.06;5128002;27;20031;-73
2021/10/21 09:54:13;;;;;;;;;;;;;;;9.42;100.00;98297.09;5128235;27;20030;-73
2021/10/21 09:56:58;;;;;;;;;;;;;;;9.44;100.00;98311.00;5128037;27;19915;-73
2021/10/21 09:59:26;;;;;;;7.47;1.13;;;;;;;9.60;100.00;98329.13;5128476;27;20006;-73
2021/10/21 10:01:57;;;;;;;2.70;1.00;;;;;;;9.51;100.00;98333.09;5128596;27;20027;-73
2021/10/21 10:04:25;;;;;;;9.15;1.20;;;;;;;9.56;100.00;98348.44;5128596;27;20041;-73
2021/10/21 10:06:54;;;;;;;13.82;1.50;;;;;;;9.43;100.00;98346.63;5128373;27;20031;-73
2021/10/21 10:09:20;;;;;;;9.57;1.23;;;;;;;9.56;100.00;98377.72;5129289;27;20039;-73
2021/10/21 10:11:46;;;;;;;11.55;2.00;;;;;;;9.65;100.00;98381.78;5129208;27;20062;-73
2021/10/21 10:14:12;;;;;;;8.02;1.73;;;;;;;9.64;100.00;98386.25;5128936;28;20360;-74
2021/10/21 10:16:37;;;;;;;6.32;1.00;;;;;;;9.64;100.00;98388.13;5128190;27;20518;-73
2021/10/21 10:19:04;;;;;;;5.47;1.10;;;;;;;9.90;100.00;98408.44;5128102;28;20101;-73
2021/10/21 10:21:34;;;;;;;6.68;1.63;;;;;;;9.88;100.00;98400.69;5129047;27;20118;-73
2021/10/21 10:24:08;;;;;;;8.05;1.35;;;;;;;9.82;100.00;98422.03;5127982;27;20110;-73
2021/10/21 10:26:50;;;;;;;10.85;1.98;;;;;;;9.90;100.00;98433.28;5129081;27;20070;-74
2021/10/21 10:29:18;;;;;;;10.13;3.10;;;;;;;9.76;100.00;98429.03;5128818;27;20046;-73
2021/10/21 10:31:48;;;;;;;12.68;2.58;;;;;;;9.81;100.00;98428.38;5130330;27;20079;-74
2021/10/21 10:34:32;;;;;;;11.48;2.08;;;;;;;9.96;100.00;98465.44;5131814;27;20114;-73
2021/10/21 10:37:17;;;;;;;5.35;0.93;;;;;;;9.91;100.00;98455.41;5130598;27;20031;-73
2021/10/21 10:39:51;;;;;;;4.20;0.80;;;;;;;10.02;100.00;98489.38;5114283;27;20031;-74
2021/10/21 10:42:37;;;;;;;3.97;1.08;;;;;;;9.92;100.00;98470.34;5131899;27;20039;-73
2021/10/21 10:45:07;;;;;;;;;;;;;;;9.89;100.00;98481.44;5114796;27;20030;-73
2021/10/21 10:47:42;;;;;;;9.20;1.33;;;;;;;10.07;100.00;98508.22;5131979;27;19911;-74
2021/10/21 10:50:13;;;;;;;9.23;1.67;;;;;;;10.18;100.00;98519.22;5132721;27;20039;-74
2021/10/21 10:52:54;;;;;;;11.13;1.52;;;;;;;10.44;100.00;98513.78;5132042;27;20456;-74
2021/10/21 10:55:27;;;;;;;4.22;1.27;;;;;;;10.52;100.00;98518.00;5131139;27;20039;-74
2021/10/21 10:57:55;;;;;;;2.47;0.70;;;;;;;10.30;100.00;98517.53;5131665;27;20077;-74
2021/10/21 11:00:48;;;;;;;6.53;1.40;;;;;;;10.27;100.00;98550.75;5132802;27;20064;-74
2021/10/21 11:03:30;;;;;;;4.93;1.08;;;;;;;10.34;100.00;98526.75;5131547;27;20074;-74
2021/10/21 11:05:58;;;;;;;6.05;0.57;;;;;;;10.59;100.00;98572.16;5131770;27;20123;-74
2021/10/21 11:08:49;;;;;;;9.65;1.85;;;;;;;10.72;100.00;98588.09;5131659;27;20031;-73
2021/10/21 11:11:41;;;;;;;4.68;0.85;;;;;;;10.57;99.98;98591.03;5131449;27;20042;-73
2021/10/21 11:14:12;;;;;;;4.78;0.77;;;;;;;10.56;100.00;98612.63;5109730;27;20047;-73
2021/10/21 11:16:53;;;;;;;5.75;0.55;;;;;;;11.96;97.92;98606.06;5131724;27;20090;-74
2021/10/21 11:19:44;;;;;;;6.72;1.02;;;;;;;11.90;93.96;98598.94;5130458;27;20524;-74
2021/10/21 11:22:11;;;;;;;6.30;0.70;;;;;;;11.33;94.42;98613.28;5131841;27;20069;-74
2021/10/21 11:24:42;;;;;;;3.90;0.80;;;;;;;10.66;94.02;98625.47;5130451;27;20042;-73
2021/10/21 11:27:08;;;;;;;2.78;0.40;;;;;;;10.22;95.67;98635.09;5131157;27;20103;-74
2021/10/21 11:29:34;;;;;;;6.10;0.57;;;;;;;9.97;97.24;98645.66;5131283;27;20027;-74
2021/10/21 11:32:03;;;;;;;5.38;0.85;;;;;;;9.57;98.02;98656.41;5132205;27;20530;-75